Time;durP1;ratioP1;P1;durP2;ratioP2;P2;SDS_P1;SDS_P2;PMS_P1;PMS_P2;Temp;Humidity;BMP_temperature;BMP_pressure;BME280_temperature;BME280_humidity;BME280_pressure;Samples;Min_cycle;Max_cycle;Signal;HPM_P1;HPM_P2
2020/12/29 00:01:02;;;;;;;4.40;3.97;;;3.50;99.90;;;;;;4936633;29;20777;-41
2020/12/29 00:03:29;;;;;;;3.58;3.10;;;3.50;99.90;;;;;;4936647;29;20287;-41
2020/12/29 00:05:55;;;;;;;4.30;3.58;;;3.40;99.90;;;;;;4936503;29;20302;-41
2020/12/29 00:08:23;;;;;;;5.20;4.13;;;3.40;99.90;;;;;;4936678;29;20327;-41
2020/12/29 00:10:50;;;;;;;4.20;3.80;;;3.40;99.90;;;;;;4936480;29;20216;-41
2020/12/29 00:13:17;;;;;;;6.82;5.60;;;3.40;99.90;;;;;;4936412;29;20239;-41
2020/12/29 00:15:44;;;;;;;4.93;4.43;;;3.50;99.90;;;;;;4936390;29;20619;-41
2020/12/29 00:18:11;;;;;;;5.77;4.30;;;3.50;99.90;;;;;;4936206;29;20786;-41
2020/12/29 00:20:39;;;;;;;4.85;4.35;;;3.50;99.90;;;;;;4936318;29;20682;-41
2020/12/29 00:23:06;;;;;;;5.22;4.75;;;3.50;99.90;;;;;;4936548;29;20303;-41
2020/12/29 00:25:33;;;;;;;5.68;4.63;;;3.50;99.90;;;;;;4936169;29;20222;-41
2020/12/29 00:28:00;;;;;;;5.40;4.37;;;3.40;99.90;;;;;;4936303;29;20205;-41
2020/12/29 00:30:27;;;;;;;4.97;4.47;;;3.40;99.90;;;;;;4935215;29;20247;-41
2020/12/29 00:32:55;;;;;;;3.80;3.47;;;3.40;99.90;;;;;;4936306;29;20259;-41
2020/12/29 00:35:22;;;;;;;4.35;3.95;;;3.40;99.90;;;;;;4935986;29;20294;-41
2020/12/29 00:37:49;;;;;;;5.88;4.03;;;3.40;99.90;;;;;;4936066;29;20315;-41
2020/12/29 00:40:16;;;;;;;4.60;4.00;;;3.40;99.90;;;;;;4935759;29;20212;-41
2020/12/29 00:42:44;;;;;;;4.65;3.95;;;3.30;99.90;;;;;;4935770;29;20302;-42
2020/12/29 00:45:10;;;;;;;4.35;3.95;;;3.40;99.90;;;;;;4935869;29;20218;-42
2020/12/29 00:47:37;;;;;;;4.00;3.60;;;3.50;99.90;;;;;;4935784;29;20496;-42
2020/12/29 00:50:05;;;;;;;3.95;3.65;;;3.40;99.90;;;;;;4935977;29;20211;-43
2020/12/29 00:52:31;;;;;;;3.60;3.15;;;3.40;99.90;;;;;;4935790;29;20471;-43
2020/12/29 00:54:58;;;;;;;4.83;3.60;;;3.40;99.90;;;;;;4935875;29;20295;-42
2020/12/29 00:57:25;;;;;;;3.88;3.47;;;3.50;99.90;;;;;;4935882;29;20327;-42
2020/12/29 00:59:53;;;;;;;3.83;3.28;;;3.60;99.90;;;;;;4935390;29;20236;-42
2020/12/29 01:02:20;;;;;;;4.27;3.87;;;3.60;99.90;;;;;;4935697;29;20267;-42
2020/12/29 01:04:47;;;;;;;4.77;3.50;;;3.60;99.90;;;;;;4935519;29;20282;-42
2020/12/29 01:07:14;;;;;;;3.90;3.40;;;3.60;99.90;;;;;;4927829;29;20211;-42
2020/12/29 01:09:42;;;;;;;4.20;3.33;;;3.70;99.90;;;;;;4935511;29;20214;-39
2020/12/29 01:12:09;;;;;;;5.50;5.00;;;3.70;99.90;;;;;;4935633;29;20240;-41
2020/12/29 01:14:37;;;;;;;25.83;19.20;;;3.80;99.90;;;;;;4935225;29;20703;-42
2020/12/29 01:17:06;;;;;;;6.30;4.70;;;3.80;99.90;;;;;;4935236;29;20208;-42
2020/12/29 01:19:33;;;;;;;11.48;9.52;;;3.80;99.90;;;;;;4935196;29;20236;-41
2020/12/29 01:21:59;;;;;;;14.98;11.23;;;3.80;99.90;;;;;;4935522;29;20735;-41
2020/12/29 01:24:27;;;;;;;11.43;10.32;;;3.80;99.90;;;;;;4935072;29;20371;-41
2020/12/29 01:26:56;;;;;;;6.20;4.20;;;3.80;99.90;;;;;;4935324;29;20539;-41
2020/12/29 01:29:23;;;;;;;4.05;3.38;;;3.80;99.90;;;;;;4935147;29;20209;-41
2020/12/29 01:31:50;;;;;;;3.30;3.00;;;3.90;99.90;;;;;;4934998;29;20299;-41
2020/12/29 01:34:18;;;;;;;5.30;4.80;;;3.90;99.90;;;;;;4935043;29;20239;-41
2020/12/29 01:36:45;;;;;;;2.83;2.63;;;3.90;99.90;;;;;;4934912;29;20726;-41
2020/12/29 01:39:12;;;;;;;2.83;2.60;;;4.00;99.90;;;;;;4934874;29;20327;-40
2020/12/29 01:41:39;;;;;;;4.37;3.20;;;4.00;99.90;;;;;;4934785;29;20223;-41
2020/12/29 01:44:13;;;;;;;3.45;3.15;;;4.00;99.90;;;;;;4935016;29;20239;-41
2020/12/29 01:46:42;;;;;;;3.83;3.08;;;4.00;99.90;;;;;;4934888;29;20243;-41
2020/12/29 01:49:10;;;;;;;3.45;3.15;;;4.00;99.90;;;;;;4934718;29;20570;-41
2020/12/29 01:51:40;;;;;;;6.60;4.43;;;4.00;99.90;;;;;;4935069;29;20212;-40
2020/12/29 01:54:07;;;;;;;4.53;3.75;;;4.00;99.90;;;;;;4934856;29;20671;-41
2020/12/29 01:56:37;;;;;;;3.55;3.25;;;4.00;99.90;;;;;;4934846;29;20266;-41
2020/12/29 01:59:09;;;;;;;2.47;2.22;;;4.00;99.90;;;;;;4934789;29;20227;-41
2020/12/29 02:01:40;;;;;;;2.63;2.30;;;3.90;99.90;;;;;;4934883;29;20595;-42
2020/12/29 02:04:08;;;;;;;2.75;2.50;;;3.90;99.90;;;;;;4934982;29;20300;-42
2020/12/29 02:06:37;;;;;;;2.20;1.90;;;3.90;99.90;;;;;;4934780;29;20231;-41
2020/12/29 02:09:06;;;;;;;4.10;2.90;;;3.90;99.90;;;;;;4934815;29;20278;-42
2020/12/29 02:11:34;;;;;;;2.28;2.08;;;4.00;99.90;;;;;;4934742;29;20239;-42
2020/12/29 02:14:01;;;;;;;10.05;5.63;;;4.10;99.90;;;;;;4934779;29;20730;-42
2020/12/29 02:16:28;;;;;;;3.60;3.00;;;4.10;99.90;;;;;;4934754;29;20294;-41
2020/12/29 02:18:55;;;;;;;2.13;1.83;;;4.20;99.90;;;;;;4934830;29;20556;-40
2020/12/29 02:21:22;;;;;;;3.63;3.20;;;4.20;99.90;;;;;;4934815;29;20243;-41
2020/12/29 02:23:50;;;;;;;4.15;3.08;;;4.30;99.90;;;;;;4934628;29;20255;-40
2020/12/29 02:26:29;;;;;;;4.45;3.28;;;4.20;99.90;;;;;;4934640;29;20214;-40
2020/12/29 02:28:58;;;;;;;4.40;2.50;;;4.20;99.90;;;;;;4934677;29;20567;-40
2020/12/29 02:31:25;;;;;;;2.83;2.63;;;4.20;99.90;;;;;;4934697;29;20302;-40
2020/12/29 02:33:53;;;;;;;13.10;10.77;;;4.20;99.90;;;;;;4934581;29;20299;-40
2020/12/29 02:36:20;;;;;;;41.53;29.00;;;4.20;99.90;;;;;;4934488;29;20698;-41
2020/12/29 02:38:47;;;;;;;18.75;12.35;;;4.20;99.90;;;;;;4934362;29;20318;-40
2020/12/29 02:41:15;;;;;;;64.13;40.22;;;4.20;99.90;;;;;;4934294;29;20244;-40
2020/12/29 02:43:42;;;;;;;44.92;32.80;;;4.10;99.90;;;;;;4934589;29;20611;-40
2020/12/29 02:46:10;;;;;;;22.38;16.25;;;4.10;99.90;;;;;;4934374;29;20247;-41
2020/12/29 02:48:37;;;;;;;7.95;5.97;;;4.10;99.90;;;;;;4934373;29;20311;-41
2020/12/29 02:51:04;;;;;;;18.48;13.25;;;4.00;99.90;;;;;;4934497;29;20212;-40
2020/12/29 02:53:31;;;;;;;14.07;11.23;;;4.00;99.90;;;;;;4935406;29;20208;-40
2020/12/29 02:55:59;;;;;;;33.70;24.20;;;3.90;99.90;;;;;;4938030;29;20700;-40
2020/12/29 02:58:26;;;;;;;23.42;19.10;;;3.90;99.90;;;;;;4938026;29;20372;-40
2020/12/29 03:00:53;;;;;;;6.60;5.93;;;3.80;99.90;;;;;;4938011;29;20300;-40
2020/12/29 03:03:20;;;;;;;7.77;7.03;;;3.80;99.90;;;;;;4937959;29;20216;-40
2020/12/29 03:05:47;;;;;;;7.45;6.30;;;3.70;99.90;;;;;;4937806;29;20260;-41
2020/12/29 03:08:14;;;;;;;10.98;9.55;;;3.60;99.90;;;;;;4937923;29;20590;-41
2020/12/29 03:10:41;;;;;;;7.22;5.85;;;3.50;99.90;;;;;;4937870;29;20571;-41
2020/12/29 03:13:08;;;;;;;7.40;4.75;;;3.40;99.90;;;;;;4937737;29;20306;-41
2020/12/29 03:15:36;;;;;;;5.38;3.00;;;3.30;99.90;;;;;;4937687;29;20224;-43
2020/12/29 03:18:03;;;;;;;4.47;3.75;;;3.30;99.90;;;;;;4937543;29;20218;-41
2020/12/29 03:20:30;;;;;;;6.97;4.57;;;3.30;99.90;;;;;;4937538;29;20737;-41
2020/12/29 03:22:57;;;;;;;2.90;2.63;;;3.30;99.90;;;;;;4937679;29;20746;-41
2020/12/29 03:25:24;;;;;;;9.02;6.07;;;3.20;99.90;;;;;;4937465;29;20259;-41
2020/12/29 03:27:51;;;;;;;5.10;3.92;;;3.20;99.90;;;;;;4937523;29;20215;-41
2020/12/29 03:30:18;;;;;;;7.93;5.13;;;3.20;99.90;;;;;;4937344;29;20307;-41
2020/12/29 03:32:46;;;;;;;4.00;3.45;;;3.20;99.90;;;;;;4937444;29;20208;-41
2020/12/29 03:35:13;;;;;;;3.47;3.05;;;3.20;99.90;;;;;;4929440;29;20258;-40
2020/12/29 03:37:40;;;;;;;2.53;2.20;;;3.30;99.90;;;;;;4937561;29;20208;-41
2020/12/29 03:40:07;;;;;;;2.90;2.70;;;3.30;99.90;;;;;;4937025;29;20235;-41
2020/12/29 03:42:34;;;;;;;2.67;2.47;;;3.40;99.90;;;;;;4937361;29;20240;-41
2020/12/29 03:45:01;;;;;;;3.55;3.25;;;3.50;99.90;;;;;;4937177;29;20208;-41
2020/12/29 03:47:30;;;;;;;2.13;1.90;;;3.50;99.90;;;;;;4937019;29;20235;-43
2020/12/29 03:49:58;;;;;;;2.42;2.10;;;3.60;99.90;;;;;;4936974;29;20618;-41
2020/12/29 03:52:25;;;;;;;1.73;1.50;;;3.60;99.90;;;;;;4937039;29;20303;-40
2020/12/29 03:54:52;;;;;;;1.57;1.27;;;3.60;99.90;;;;;;4937099;29;20247;-41
2020/12/29 03:57:19;;;;;;;2.30;1.63;;;3.60;99.90;;;;;;4936834;29;20216;-41
2020/12/29 03:59:46;;;;;;;1.60;1.50;;;3.60;99.90;;;;;;4936587;29;20721;-40
2020/12/29 04:02:13;;;;;;;1.13;1.05;;;3.60;99.90;;;;;;4936640;29;20294;-40
2020/12/29 04:04:40;;;;;;;1.48;1.38;;;3.70;99.90;;;;;;4936605;29;20303;-40
2020/12/29 04:07:07;;;;;;;1.20;0.93;;;3.70;99.90;;;;;;4936828;29;20224;-40
2020/12/29 04:09:34;;;;;;;1.90;1.50;;;3.80;99.90;;;;;;4936779;29;20419;-40
2020/12/29 04:12:01;;;;;;;1.67;1.20;;;3.80;99.90;;;;;;4936623;29;20251;-40
2020/12/29 04:14:28;;;;;;;1.30;1.20;;;3.90;99.90;;;;;;4936445;29;20797;-40
2020/12/29 04:16:56;;;;;;;1.58;1.38;;;4.00;99.90;;;;;;4936280;29;20208;-42
2020/12/29 04:19:23;;;;;;;3.30;1.35;;;4.00;99.90;;;;;;4936316;29;20236;-44
2020/12/29 04:21:50;;;;;;;1.27;1.17;;;4.10;99.90;;;;;;4936571;29;20301;-40
2020/12/29 04:24:17;;;;;;;1.57;1.27;;;4.20;99.90;;;;;;4936403;29;20236;-40
2020/12/29 04:26:44;;;;;;;2.93;1.20;;;4.20;99.90;;;;;;4936504;29;20239;-40
2020/12/29 04:29:11;;;;;;;1.73;1.25;;;4.20;99.90;;;;;;4936058;29;20255;-42
2020/12/29 04:31:38;;;;;;;1.00;0.90;;;4.30;99.90;;;;;;4936532;29;20220;-43
2020/12/29 04:34:05;;;;;;;0.82;0.82;;;4.30;99.90;;;;;;4936209;29;20664;-42
2020/12/29 04:36:32;;;;;;;1.25;0.73;;;4.40;99.90;;;;;;4936198;29;20224;-43
2020/12/29 04:38:59;;;;;;;1.37;1.00;;;4.40;99.90;;;;;;4936158;29;20647;-42
2020/12/29 04:41:28;;;;;;;1.73;1.00;;;4.40;99.90;;;;;;4935978;29;20230;-40
2020/12/29 04:43:56;;;;;;;1.05;0.93;;;4.50;99.90;;;;;;4936031;29;20696;-40
2020/12/29 04:46:23;;;;;;;1.20;1.05;;;4.50;99.90;;;;;;4936138;29;20673;-46
2020/12/29 04:48:50;;;;;;;0.93;0.70;;;4.50;99.90;;;;;;4935966;29;20209;-42
2020/12/29 04:51:17;;;;;;;1.15;1.05;;;4.50;99.90;;;;;;4935855;29;20646;-43
2020/12/29 04:53:56;;;;;;;1.20;0.90;;;4.50;99.90;;;;;;4935715;29;20251;-43
2020/12/29 04:56:30;;;;;;;1.27;1.00;;;4.60;99.90;;;;;;4935689;29;20216;-42
2020/12/29 04:58:59;;;;;;;1.30;1.13;;;4.60;99.90;;;;;;4935864;29;20287;-40
2020/12/29 05:01:30;;;;;;;1.20;0.83;;;4.50;99.90;;;;;;4935709;29;20315;-41
2020/12/29 05:04:00;;;;;;;3.10;1.05;;;4.60;99.90;;;;;;4935656;29;20578;-41
2020/12/29 05:06:27;;;;;;;1.53;0.90;;;4.60;99.90;;;;;;4935592;29;20216;-41
2020/12/29 05:08:55;;;;;;;0.93;0.80;;;4.60;99.90;;;;;;4935491;29;20240;-41
2020/12/29 05:11:24;;;;;;;1.05;0.80;;;4.60;99.90;;;;;;4935799;29;20291;-41
2020/12/29 05:13:52;;;;;;;1.15;0.93;;;4.70;99.90;;;;;;4935507;29;20243;-41
2020/12/29 05:16:19;;;;;;;1.07;1.00;;;4.70;99.90;;;;;;4934662;29;20248;-40
2020/12/29 05:18:46;;;;;;;1.08;0.90;;;4.80;99.80;;;;;;4935309;29;20667;-41
2020/12/29 05:21:14;;;;;;;1.07;0.87;;;4.80;99.80;;;;;;4935422;29;20671;-40
2020/12/29 05:23:41;;;;;;;1.65;0.90;;;4.90;99.80;;;;;;4935596;29;20212;-39
2020/12/29 05:26:09;;;;;;;1.70;0.90;;;4.90;99.80;;;;;;4935207;29;20220;-41
2020/12/29 05:28:37;;;;;;;3.03;1.87;;;4.90;99.50;;;;;;4935349;29;20212;-41
2020/12/29 05:31:05;;;;;;;1.52;1.15;;;5.00;99.60;;;;;;4935120;29;20214;-40
2020/12/29 05:33:33;;;;;;;1.27;0.70;;;5.00;99.50;;;;;;4935241;29;20212;-41
2020/12/29 05:36:02;;;;;;;6.17;3.53;;;5.00;99.90;;;;;;4934745;29;20675;-41
2020/12/29 05:38:29;;;;;;;0.88;0.70;;;5.00;99.60;;;;;;4934924;29;20302;-41
2020/12/29 05:40:56;;;;;;;1.48;0.85;;;5.00;99.60;;;;;;4934978;29;20709;-41
2020/12/29 05:43:31;;;;;;;1.33;1.00;;;5.00;99.60;;;;;;4934731;29;20216;-41
2020/12/29 05:46:00;;;;;;;3.53;1.63;;;5.00;99.60;;;;;;4934843;29;20224;-42
2020/12/29 05:48:27;;;;;;;3.73;1.70;;;5.00;99.50;;;;;;4934781;29;20314;-41
2020/12/29 05:50:55;;;;;;;4.13;1.73;;;5.00;99.50;;;;;;4934863;29;20290;-40
2020/12/29 05:53:24;;;;;;;1.90;1.23;;;5.00;99.40;;;;;;4934788;29;20374;-41
2020/12/29 05:55:50;;;;;;;1.45;0.98;;;5.00;99.50;;;;;;4934533;29;20295;-41
2020/12/29 05:58:19;;;;;;;12.87;5.63;;;5.00;99.50;;;;;;4934815;29;20235;-41
2020/12/29 06:00:47;;;;;;;2.37;1.10;;;5.00;99.70;;;;;;4934641;29;20299;-41
2020/12/29 06:03:15;;;;;;;1.58;1.10;;;5.00;99.60;;;;;;4934993;29;20258;-42
2020/12/29 06:05:47;;;;;;;2.25;1.13;;;5.00;99.60;;;;;;4934542;29;20310;-41
2020/12/29 06:08:17;;;;;;;1.55;0.88;;;5.00;99.50;;;;;;4934664;29;20287;-41
2020/12/29 06:10:55;;;;;;;3.37;1.10;;;4.90;99.50;;;;;;4934460;29;20631;-41
2020/12/29 06:13:27;;;;;;;1.70;1.17;;;5.00;99.60;;;;;;4934226;29;20334;-41
2020/12/29 06:15:57;;;;;;;1.35;0.73;;;4.90;99.40;;;;;;4934507;29;20270;-41
2020/12/29 06:18:34;;;;;;;28.70;16.17;;;5.00;99.50;;;;;;4934458;29;20223;-40
2020/12/29 06:21:04;;;;;;;4.80;1.50;;;5.00;99.30;;;;;;4934409;29;20216;-39
2020/12/29 06:23:47;;;;;;;2.60;1.20;;;5.00;99.30;;;;;;4934030;29;20223;-39
2020/12/29 06:26:18;;;;;;;3.17;2.23;;;5.00;99.20;;;;;;4934202;29;20327;-39
2020/12/29 06:28:48;;;;;;;1.67;1.17;;;5.00;99.20;;;;;;4937587;29;20302;-39
2020/12/29 06:31:26;;;;;;;2.60;1.20;;;5.00;99.20;;;;;;4938368;29;20288;-40
2020/12/29 06:33:55;;;;;;;3.33;2.23;;;5.00;99.10;;;;;;4938116;29;20718;-41
2020/12/29 06:36:28;;;;;;;1.42;0.95;;;5.00;99.10;;;;;;4938059;29;20208;-41
2020/12/29 06:39:00;;;;;;;0.93;0.73;;;5.00;99.20;;;;;;4938021;29;20279;-39
2020/12/29 06:41:29;;;;;;;0.85;0.75;;;5.00;99.20;;;;;;4937660;29;20306;-38
2020/12/29 06:43:56;;;;;;;1.67;0.80;;;5.00;99.20;;;;;;4937454;29;20302;-39
2020/12/29 06:46:23;;;;;;;1.13;0.80;;;5.00;99.20;;;;;;4937316;29;20394;-39
2020/12/29 06:48:50;;;;;;;1.07;0.70;;;5.00;99.40;;;;;;4937653;29;20246;-41
2020/12/29 06:51:17;;;;;;;1.60;0.90;;;5.00;99.10;;;;;;4937841;29;20286;-40
2020/12/29 06:53:49;;;;;;;1.30;0.80;;;5.10;99.10;;;;;;4937750;29;20216;-40
2020/12/29 06:56:18;;;;;;;3.22;1.15;;;5.10;99.10;;;;;;4938019;29;20212;-40
2020/12/29 06:58:45;;;;;;;0.90;0.70;;;5.10;98.90;;;;;;4937686;29;20295;-40
2020/12/29 07:01:21;;;;;;;0.80;0.68;;;5.10;98.90;;;;;;4937734;29;20212;-39
2020/12/29 07:03:59;;;;;;;2.83;1.00;;;5.20;98.70;;;;;;4937776;29;20249;-39
2020/12/29 07:06:28;;;;;;;0.88;0.80;;;5.20;98.70;;;;;;4937641;29;20645;-39
2020/12/29 07:09:08;;;;;;;1.88;0.88;;;5.20;98.70;;;;;;4937502;29;20299;-39
2020/12/29 07:11:37;;;;;;;2.13;0.82;;;5.20;98.70;;;;;;4938609;29;20243;-40
2020/12/29 07:14:05;;;;;;;2.67;0.73;;;5.20;98.80;;;;;;4937867;29;20327;-41
2020/12/29 07:16:35;;;;;;;2.97;1.53;;;5.20;98.80;;;;;;4937396;29;20572;-40
2020/12/29 07:19:10;;;;;;;3.53;2.23;;;5.20;98.90;;;;;;4937468;29;20299;-40
2020/12/29 07:21:37;;;;;;;2.70;0.80;;;5.20;99.00;;;;;;4936845;29;20586;-41
2020/12/29 07:24:06;;;;;;;0.70;0.70;;;5.20;99.00;;;;;;4937074;29;20730;-40
2020/12/29 07:26:38;;;;;;;2.47;0.97;;;5.20;99.00;;;;;;4937456;29;20220;-40
2020/12/29 07:29:07;;;;;;;2.08;0.90;;;5.10;98.90;;;;;;4937230;29;20611;-41
2020/12/29 07:31:38;;;;;;;2.97;1.13;;;5.20;99.30;;;;;;4936923;29;20577;-40
2020/12/29 07:34:10;;;;;;;0.93;0.80;;;5.20;99.10;;;;;;4937118;29;20260;-39
2020/12/29 07:36:42;;;;;;;4.18;1.05;;;5.20;99.10;;;;;;4936982;29;20679;-41
2020/12/29 07:39:12;;;;;;;3.07;1.00;;;5.30;99.20;;;;;;4935895;29;20232;-40
2020/12/29 07:41:41;;;;;;;2.60;1.13;;;5.20;99.20;;;;;;4937230;29;20220;-40
2020/12/29 07:44:08;;;;;;;1.50;1.33;;;5.30;99.30;;;;;;4937291;29;20228;-40
2020/12/29 07:46:35;;;;;;;1.10;0.80;;;5.30;99.20;;;;;;4936760;29;20297;-41
2020/12/29 07:49:04;;;;;;;1.88;1.55;;;5.20;99.20;;;;;;4936674;29;20307;-40
2020/12/29 07:51:31;;;;;;;2.97;1.47;;;5.30;99.20;;;;;;4936899;29;20292;-42
2020/12/29 07:54:04;;;;;;;8.03;4.30;;;5.30;99.20;;;;;;4936488;29;20266;-40
2020/12/29 07:56:32;;;;;;;5.43;3.10;;;5.30;99.10;;;;;;4936700;29;20212;-40
2020/12/29 07:59:08;;;;;;;7.33;3.60;;;5.30;99.10;;;;;;4936539;29;20647;-40
2020/12/29 08:01:48;;;;;;;7.03;3.43;;;5.40;99.10;;;;;;4936474;29;20679;-40
2020/12/29 08:04:31;;;;;;;2.97;1.60;;;5.30;99.20;;;;;;4928894;29;20239;-39
2020/12/29 08:07:06;;;;;;;1.92;1.30;;;5.40;99.20;;;;;;4936151;29;20702;-40
2020/12/29 08:09:44;;;;;;;3.53;1.10;;;5.30;99.20;;;;;;4936160;29;20663;-40
2020/12/29 08:12:14;;;;;;;2.80;1.02;;;5.30;99.20;;;;;;4936315;29;20307;-39
2020/12/29 08:14:42;;;;;;;2.03;1.15;;;5.30;99.30;;;;;;4936210;29;20295;-40
2020/12/29 08:17:09;;;;;;;3.00;2.30;;;5.40;99.30;;;;;;4936183;29;20240;-40
2020/12/29 08:19:36;;;;;;;1.10;1.00;;;5.40;99.30;;;;;;4936080;29;20264;-40
2020/12/29 08:22:07;;;;;;;1.88;0.95;;;5.40;99.30;;;;;;4936245;29;20498;-40
2020/12/29 08:24:35;;;;;;;1.73;1.00;;;5.50;99.30;;;;;;4935950;29;20208;-40
2020/12/29 08:27:03;;;;;;;3.40;2.13;;;5.50;99.20;;;;;;4935924;29;20234;-39
2020/12/29 08:29:33;;;;;;;1.27;0.90;;;5.50;99.10;;;;;;4935967;29;20306;-40
2020/12/29 08:32:08;;;;;;;2.47;1.45;;;5.60;99.10;;;;;;4935944;29;20777;-39
2020/12/29 08:34:37;;;;;;;3.27;2.30;;;5.60;99.10;;;;;;4935691;29;20220;-39
2020/12/29 08:37:07;;;;;;;1.38;1.10;;;5.60;98.90;;;;;;4935259;29;20294;-39
2020/12/29 08:39:50;;;;;;;4.47;2.15;;;5.70;98.80;;;;;;4936034;29;20231;-39
2020/12/29 08:42:19;;;;;;;4.53;1.03;;;5.80;98.70;;;;;;4935720;29;20211;-39
2020/12/29 08:44:46;;;;;;;3.10;1.67;;;5.80;98.60;;;;;;4935596;29;20316;-40
2020/12/29 08:47:15;;;;;;;2.50;1.30;;;5.90;98.80;;;;;;4935665;29;20372;-39
2020/12/29 08:49:42;;;;;;;3.40;2.60;;;6.00;98.70;;;;;;4935438;29;20243;-39
2020/12/29 08:52:09;;;;;;;3.05;1.50;;;6.00;98.40;;;;;;4934570;29;20264;-39
2020/12/29 08:54:37;;;;;;;4.55;1.52;;;5.90;98.50;;;;;;4935033;29;20271;-41
2020/12/29 08:57:06;;;;;;;1.85;1.10;;;5.90;98.40;;;;;;4935095;29;20212;-39
2020/12/29 08:59:38;;;;;;;3.33;1.60;;;5.90;98.40;;;;;;4934894;29;20228;-38
2020/12/29 09:02:06;;;;;;;3.78;1.60;;;5.90;98.50;;;;;;4934726;29;20212;-39
2020/12/29 09:04:37;;;;;;;2.15;1.88;;;5.90;98.40;;;;;;4935000;29;20251;-39
2020/12/29 09:07:06;;;;;;;2.67;1.05;;;6.00;98.40;;;;;;4935224;29;20224;-38
2020/12/29 09:09:35;;;;;;;3.15;1.27;;;6.00;98.30;;;;;;4934816;29;20299;-39
2020/12/29 09:12:15;;;;;;;2.33;1.40;;;6.00;98.30;;;;;;5109083;27;20522;-40
2020/12/29 09:14:54;;;;;;;1.80;1.03;;;6.10;98.20;;;;;;5108907;28;20675;-40
2020/12/29 09:17:22;;;;;;;1.50;1.00;;;6.10;98.00;;;;;;5109214;28;20699;-40
2020/12/29 09:20:19;;;;;;;2.87;1.80;;;6.20;98.10;;;;;;5108841;28;20210;-40
2020/12/29 09:22:50;;;;;;;2.15;1.30;;;6.20;97.80;;;;;;5109288;28;20301;-40
2020/12/29 09:25:32;;;;;;;5.15;1.30;;;6.20;97.80;;;;;;5109687;28;20315;-40
2020/12/29 09:28:17;;;;;;;2.20;1.70;;;6.30;97.80;;;;;;5109342;28;20292;-40
2020/12/29 09:30:47;;;;;;;2.70;1.10;;;6.40;97.50;;;;;;5109440;28;20650;-40
2020/12/29 09:33:20;;;;;;;3.80;1.42;;;6.50;97.50;;;;;;5109289;28;20245;-40
2020/12/29 09:35:49;;;;;;;4.13;2.20;;;6.60;97.50;;;;;;5109429;28;20242;-40
2020/12/29 09:38:17;;;;;;;3.80;2.20;;;6.70;97.40;;;;;;5109165;28;20210;-40
2020/12/29 09:40:58;;;;;;;2.33;1.95;;;6.70;97.10;;;;;;5109079;28;20228;-40
2020/12/29 09:43:26;;;;;;;2.70;2.50;;;6.80;97.00;;;;;;5109017;28;20214;-40
2020/12/29 09:45:53;;;;;;;3.40;3.03;;;6.90;97.00;;;;;;5108955;28;20232;-40
2020/12/29 09:48:20;;;;;;;3.95;3.10;;;7.00;96.90;;;;;;5109363;28;20313;-40
2020/12/29 09:50:47;;;;;;;2.17;1.63;;;7.10;96.70;;;;;;5109039;28;20289;-40
2020/12/29 09:53:14;;;;;;;4.57;2.40;;;7.10;96.40;;;;;;5108826;28;20252;-39
2020/12/29 09:55:41;;;;;;;3.13;2.25;;;7.10;96.40;;;;;;5108818;28;20206;-40
2020/12/29 09:58:08;;;;;;;5.53;2.60;;;7.10;96.30;;;;;;5108811;28;20241;-40
2020/12/29 10:00:36;;;;;;;3.28;1.90;;;7.10;96.30;;;;;;5108576;28;20222;-40
2020/12/29 10:03:04;;;;;;;1.88;1.13;;;7.10;96.10;;;;;;5108807;28;20229;-39
2020/12/29 10:05:32;;;;;;;4.07;2.67;;;7.20;96.20;;;;;;5108727;28;20214;-39
2020/12/29 10:07:59;;;;;;;5.15;2.45;;;7.30;96.20;;;;;;5108598;28;20293;-39
2020/12/29 10:10:26;;;;;;;6.80;2.65;;;7.40;96.00;;;;;;5108484;28;20234;-40
2020/12/29 10:12:53;;;;;;;4.47;1.70;;;7.50;96.00;;;;;;5108614;28;20232;-39
2020/12/29 10:15:20;;;;;;;5.53;2.47;;;7.60;95.90;;;;;;5108225;28;20232;-40
2020/12/29 10:17:47;;;;;;;4.32;2.70;;;7.70;95.50;;;;;;5108579;28;20297;-39
2020/12/29 10:20:15;;;;;;;6.28;2.72;;;7.80;95.50;;;;;;5108455;28;20313;-40
2020/12/29 10:22:42;;;;;;;3.03;2.05;;;7.80;95.30;;;;;;5099384;28;20207;-40
2020/12/29 10:25:10;;;;;;;1.10;0.80;;;7.80;95.30;;;;;;5094280;28;20232;-40
2020/12/29 10:27:38;;;;;;;7.97;2.95;;;7.80;94.10;;;;;;5094744;28;20253;-40
2020/12/29 10:30:05;;;;;;;1.50;1.15;;;7.80;94.50;;;;;;5094769;28;20250;-40
2020/12/29 10:32:32;;;;;;;5.10;2.08;;;7.70;93.90;;;;;;5095223;28;20268;-40
2020/12/29 10:35:00;;;;;;;5.65;2.47;;;7.70;93.90;;;;;;5094778;28;20254;-40
2020/12/29 10:37:27;;;;;;;5.30;2.47;;;7.70;93.90;;;;;;5094211;28;20245;-41
2020/12/29 10:39:54;;;;;;;8.50;3.53;;;7.80;94.10;;;;;;5094349;28;20207;-40
2020/12/29 10:42:21;;;;;;;9.88;3.70;;;7.90;94.00;;;;;;5094493;28;20311;-41
2020/12/29 10:44:48;;;;;;;5.68;2.17;;;8.00;93.60;;;;;;5094481;28;20293;-41
2020/12/29 10:47:15;;;;;;;14.75;6.82;;;8.00;93.70;;;;;;5094499;28;20253;-41
2020/12/29 10:49:42;;;;;;;14.23;6.07;;;8.10;93.80;;;;;;5094423;28;20305;-40
2020/12/29 10:52:12;;;;;;;11.10;6.07;;;8.10;93.20;;;;;;5094283;28;20203;-40
2020/12/29 10:54:39;;;;;;;3.00;1.40;;;7.90;93.30;;;;;;5094066;28;20305;-38
2020/12/29 10:57:06;;;;;;;9.82;5.53;;;7.90;93.50;;;;;;5094300;28;20717;-41
2020/12/29 10:59:33;;;;;;;2.60;1.50;;;7.90;93.50;;;;;;5094335;28;20296;-41
2020/12/29 11:02:00;;;;;;;2.10;1.48;;;8.00;93.50;;;;;;5094100;28;20226;-41
2020/12/29 11:04:27;;;;;;;3.13;1.40;;;8.00;93.30;;;;;;5094034;28;20215;-41
2020/12/29 11:06:54;;;;;;;3.03;1.20;;;7.90;93.40;;;;;;5093837;28;20211;-39
2020/12/29 11:09:22;;;;;;;1.88;0.80;;;7.80;93.30;;;;;;5093717;28;20246;-39
2020/12/29 11:11:49;;;;;;;2.28;1.55;;;7.80;93.50;;;;;;5093562;28;20689;-39
2020/12/29 11:14:16;;;;;;;2.88;1.38;;;7.70;93.50;;;;;;5093590;28;20236;-39
2020/12/29 11:16:43;;;;;;;2.63;1.30;;;7.70;93.80;;;;;;5093855;28;20209;-40
2020/12/29 11:19:10;;;;;;;2.35;1.00;;;7.70;93.70;;;;;;5093710;28;20331;-40
2020/12/29 11:21:37;;;;;;;2.92;1.00;;;7.70;93.80;;;;;;5093436;28;20562;-39
2020/12/29 11:24:04;;;;;;;2.22;0.98;;;7.80;93.40;;;;;;5093968;28;20251;-40
2020/12/29 11:26:32;;;;;;;1.77;1.25;;;7.80;93.00;;;;;;5093593;28;20203;-40
2020/12/29 11:28:59;;;;;;;4.03;1.10;;;7.90;93.20;;;;;;5093117;28;20602;-40
2020/12/29 11:31:27;;;;;;;2.28;0.93;;;8.00;93.10;;;;;;5093265;28;20199;-40
2020/12/29 11:33:54;;;;;;;2.45;1.40;;;8.10;93.20;;;;;;5092257;28;20207;-40
2020/12/29 11:36:22;;;;;;;2.92;1.23;;;8.10;92.80;;;;;;5093130;28;20246;-40
2020/12/29 11:38:49;;;;;;;2.60;1.10;;;8.10;92.90;;;;;;5092982;28;20609;-40
2020/12/29 11:41:16;;;;;;;2.22;1.02;;;8.10;92.80;;;;;;5093067;28;20321;-40
2020/12/29 11:43:45;;;;;;;1.75;1.10;;;8.10;92.70;;;;;;5093024;28;20207;-40
2020/12/29 11:46:13;;;;;;;1.27;1.02;;;8.00;93.00;;;;;;5093005;28;20252;-40
2020/12/29 11:48:40;;;;;;;2.83;1.35;;;8.00;93.10;;;;;;5093168;28;20233;-42
2020/12/29 11:51:09;;;;;;;2.67;1.60;;;8.00;93.30;;;;;;5092945;28;20242;-40
2020/12/29 11:53:37;;;;;;;2.63;0.90;;;8.00;93.20;;;;;;5093076;28;20720;-40
2020/12/29 11:56:04;;;;;;;2.20;1.02;;;7.90;92.90;;;;;;5092761;28;20589;-40
2020/12/29 11:58:34;;;;;;;3.60;1.30;;;7.90;93.40;;;;;;5092597;28;20202;-39
2020/12/29 12:01:02;;;;;;;1.73;1.20;;;7.80;93.30;;;;;;5092541;28;20322;-40
2020/12/29 12:03:29;;;;;;;1.42;1.23;;;7.80;93.30;;;;;;5092295;28;20218;-40
2020/12/29 12:05:56;;;;;;;1.75;1.10;;;7.70;93.30;;;;;;5092820;28;20569;-40
2020/12/29 12:08:23;;;;;;;0.98;0.90;;;7.60;93.20;;;;;;5092874;28;20683;-40
2020/12/29 12:10:51;;;;;;;4.43;1.10;;;7.60;93.40;;;;;;5092603;28;20234;-41
2020/12/29 12:13:18;;;;;;;2.13;0.90;;;7.60;93.40;;;;;;5092577;28;20289;-40
2020/12/29 12:15:54;;;;;;;0.88;0.68;;;7.50;93.20;;;;;;5092685;28;20564;-40
2020/12/29 12:18:38;;;;;;;1.60;0.80;;;7.50;93.00;;;;;;5092441;28;20684;-40
2020/12/29 12:21:05;;;;;;;1.63;1.10;;;7.40;93.10;;;;;;5092295;28;20309;-40
2020/12/29 12:23:32;;;;;;;2.73;0.80;;;7.40;93.20;;;;;;5092258;28;20214;-40
2020/12/29 12:25:59;;;;;;;1.02;0.77;;;7.30;93.00;;;;;;5093141;28;20561;-40
2020/12/29 12:28:27;;;;;;;2.15;0.95;;;7.20;92.80;;;;;;5092272;28;20211;-41
2020/12/29 12:30:55;;;;;;;1.10;0.98;;;7.10;92.80;;;;;;5092521;28;20577;-41
2020/12/29 12:33:22;;;;;;;5.00;1.20;;;7.10;93.10;;;;;;5092465;28;20632;-41
2020/12/29 12:35:49;;;;;;;3.35;1.17;;;7.10;93.10;;;;;;5092328;28;20297;-41
2020/12/29 12:38:17;;;;;;;1.42;1.10;;;7.10;93.20;;;;;;5092263;28;20297;-41
2020/12/29 12:40:44;;;;;;;2.15;1.17;;;7.10;93.20;;;;;;5092083;28;20645;-41
2020/12/29 12:43:11;;;;;;;2.22;1.00;;;7.10;93.10;;;;;;5092561;28;20299;-41
2020/12/29 12:45:38;;;;;;;2.50;1.02;;;7.20;93.20;;;;;;5091957;28;20290;-41
2020/12/29 12:48:05;;;;;;;0.80;0.80;;;7.10;93.10;;;;;;5092135;28;20230;-41
2020/12/29 12:50:32;;;;;;;1.10;1.02;;;7.10;92.90;;;;;;5092287;28;20218;-40
2020/12/29 12:53:00;;;;;;;3.95;0.88;;;7.10;92.90;;;;;;5091982;28;20279;-41
2020/12/29 12:55:27;;;;;;;2.78;1.20;;;7.10;92.90;;;;;;5091923;28;20214;-41
2020/12/29 12:57:54;;;;;;;1.27;1.13;;;7.10;92.90;;;;;;5092300;28;20207;-41
2020/12/29 13:00:21;;;;;;;2.67;1.77;;;7.10;93.30;;;;;;5091907;28;20293;-40
2020/12/29 13:02:48;;;;;;;4.78;1.73;;;7.10;93.00;;;;;;5091856;28;20242;-40